createdAt,value
2018-01-06T00:01:10.452Z,5.73
2018-01-06T00:06:11.997Z,5.30
2018-01-06T00:11:14.379Z,6.60
2018-01-06T00:16:15.971Z,5.73
2018-01-06T00:21:17.500Z,6.00
2018-01-06T00:26:19.066Z,5.50
2018-01-06T00:31:20.629Z,5.53
2018-01-06T00:36:22.185Z,5.43
2018-01-06T00:41:23.751Z,4.70
2018-01-06T00:46:25.292Z,5.20
2018-01-06T00:51:30.204Z,4.30
2018-01-06T00:56:33.337Z,4.00
2018-01-06T01:01:34.929Z,4.50
2018-01-06T01:06:36.584Z,4.10
2018-01-06T01:11:38.220Z,4.77
2018-01-06T01:16:40.485Z,4.40
2018-01-06T01:21:42.036Z,3.90
2018-01-06T01:26:44.361Z,4.20
2018-01-06T01:31:47.233Z,3.63
2018-01-06T01:36:48.741Z,4.03
2018-01-06T01:41:50.240Z,4.17
2018-01-06T01:46:51.782Z,4.70
2018-01-06T01:51:53.360Z,5.90
2018-01-06T01:56:54.926Z,5.70
2018-01-06T02:01:56.464Z,5.37
2018-01-06T02:06:58.771Z,6.23
2018-01-06T02:12:07.215Z,6.20
2018-01-06T02:17:09.521Z,5.27
2018-01-06T02:22:11.049Z,7.80
2018-01-06T02:27:13.564Z,6.77
2018-01-06T02:32:15.101Z,5.90
2018-01-06T02:37:16.688Z,5.00
2018-01-06T02:42:19.233Z,6.47
2018-01-06T02:47:20.745Z,6.53
2018-01-06T02:52:22.205Z,5.63
2018-01-06T02:57:23.748Z,7.00
2018-01-06T03:02:26.027Z,6.97
2018-01-06T03:07:28.393Z,6.80
2018-01-06T03:12:30.096Z,6.27
2018-01-06T03:17:32.364Z,5.20
2018-01-06T03:22:33.943Z,5.97
2018-01-06T03:27:37.141Z,6.00
2018-01-06T03:32:38.697Z,5.10
2018-01-06T03:37:41.211Z,6.50
2018-01-06T03:42:43.473Z,7.00
2018-01-06T03:47:45.018Z,6.97
2018-01-06T03:52:46.568Z,7.13
2018-01-06T03:57:48.134Z,5.87
2018-01-06T04:02:49.661Z,6.80
2018-01-06T04:07:51.962Z,6.33
2018-01-06T04:12:53.529Z,6.37
2018-01-06T04:17:55.805Z,6.27
2018-01-06T04:22:58.307Z,6.67
2018-01-06T04:27:59.786Z,7.40
2018-01-06T04:33:02.177Z,7.00
2018-01-06T04:38:03.713Z,6.50
2018-01-06T04:43:05.969Z,7.90
2018-01-06T04:48:07.512Z,6.77
2018-01-06T04:53:09.072Z,6.70
2018-01-06T04:58:11.169Z,6.17
2018-01-06T05:03:12.988Z,7.07
2018-01-06T05:08:15.294Z,7.63
2018-01-06T05:13:16.853Z,7.10
2018-01-06T05:18:18.519Z,8.57
2018-01-06T05:23:19.991Z,7.90
2018-01-06T05:28:21.524Z,7.70
2018-01-06T05:33:23.603Z,9.13
2018-01-06T05:38:25.162Z,8.17
2018-01-06T05:43:26.758Z,9.87
2018-01-06T05:48:29.059Z,9.70
2018-01-06T05:53:30.628Z,8.07
2018-01-06T05:58:32.209Z,7.63
2018-01-06T06:03:33.763Z,7.50
2018-01-06T06:08:36.028Z,8.07
2018-01-06T06:13:38.356Z,8.13
2018-01-06T06:18:40.935Z,7.70
2018-01-06T06:23:42.548Z,8.07
2018-01-06T06:28:44.083Z,9.10
2018-01-06T06:33:46.666Z,10.53
2018-01-06T06:38:48.204Z,8.77
2018-01-06T06:43:50.487Z,11.27
2018-01-06T06:48:53.407Z,10.27
2018-01-06T06:53:54.950Z,11.20
2018-01-06T06:58:57.221Z,11.50
2018-01-06T07:03:58.747Z,12.10
2018-01-06T07:09:01.224Z,11.30
2018-01-06T07:14:03.256Z,10.87
2018-01-06T07:19:05.556Z,9.60
2018-01-06T07:24:07.845Z,10.33
2018-01-06T07:29:10.207Z,10.83
2018-01-06T07:34:12.680Z,10.63
2018-01-06T07:39:15.149Z,12.20
2018-01-06T07:44:16.680Z,10.07
2018-01-06T07:49:18.196Z,10.83
2018-01-06T07:54:20.039Z,11.87
2018-01-06T07:59:21.588Z,13.20
2018-01-06T08:04:25.798Z,13.30
2018-01-06T08:09:27.404Z,11.40
2018-01-06T08:14:29.036Z,14.80
2018-01-06T08:19:31.604Z,13.43
2018-01-06T08:24:34.037Z,13.93
2018-01-06T08:29:36.374Z,14.37
2018-01-06T08:34:37.959Z,16.03
2018-01-06T08:39:39.555Z,15.70
2018-01-06T08:44:41.821Z,16.60
2018-01-06T08:49:43.365Z,15.50
2018-01-06T08:54:53.141Z,15.30
2018-01-06T08:59:59.553Z,15.00
2018-01-06T09:05:03.364Z,16.90
2018-01-06T09:10:07.505Z,15.50
2018-01-06T09:15:14.679Z,16.70
2018-01-06T09:20:18.040Z,15.30
2018-01-06T09:25:19.626Z,15.97
2018-01-06T09:30:21.815Z,17.17
2018-01-06T09:35:23.346Z,17.43
2018-01-06T09:40:25.641Z,16.80
2018-01-06T09:45:31.041Z,18.40
2018-01-06T09:50:35.124Z,18.87
2018-01-06T09:55:36.735Z,16.93
2018-01-06T10:00:39.249Z,20.87
2018-01-06T10:05:43.596Z,18.23
2018-01-06T10:10:47.356Z,18.50
2018-01-06T10:15:50.148Z,18.00
2018-01-06T10:20:53.364Z,19.20
2018-01-06T10:25:54.924Z,17.87
2018-01-06T10:30:56.521Z,19.07
2018-01-06T10:35:58.051Z,18.93
2018-01-06T10:40:59.588Z,16.80
2018-01-06T10:46:01.873Z,18.93
2018-01-06T10:51:05.374Z,18.93
2018-01-06T10:56:07.001Z,18.00
2018-01-06T11:01:14.579Z,17.13
2018-01-06T11:06:16.130Z,16.03
2018-01-06T11:11:18.873Z,16.10
2018-01-06T11:16:20.413Z,17.60
2018-01-06T11:21:22.412Z,15.40
2018-01-06T11:26:23.932Z,16.70
2018-01-06T11:31:25.482Z,17.70
2018-01-06T11:36:26.999Z,15.87
2018-01-06T11:41:28.565Z,15.47
2018-01-06T11:46:30.225Z,17.27
2018-01-06T11:51:31.752Z,14.33
2018-01-06T11:56:33.315Z,17.70
2018-01-06T12:01:34.869Z,18.50
2018-01-06T12:06:36.396Z,18.60
2018-01-06T12:11:38.812Z,15.73
2018-01-06T12:16:40.387Z,13.97
2018-01-06T12:21:41.948Z,13.20
2018-01-06T12:26:43.509Z,14.23
2018-01-06T12:31:45.026Z,17.80
2018-01-06T12:36:46.716Z,19.20
2018-01-06T12:41:48.992Z,21.30
2018-01-06T12:46:50.516Z,20.23
2018-01-06T12:51:52.032Z,18.90
2018-01-06T12:56:54.279Z,21.77
2018-01-06T13:01:55.844Z,20.53
2018-01-06T13:06:57.406Z,21.27
2018-01-06T13:11:58.942Z,21.73
2018-01-06T13:17:00.486Z,22.23
2018-01-06T13:22:02.037Z,23.87
2018-01-06T13:27:03.627Z,25.17
2018-01-06T13:32:05.940Z,25.63
2018-01-06T13:37:07.458Z,23.57
2018-01-06T13:42:08.983Z,28.47
2018-01-06T13:47:10.560Z,27.13
2018-01-06T13:52:12.218Z,25.87
2018-01-06T13:57:13.784Z,26.43
2018-01-06T14:02:15.338Z,26.57
2018-01-06T14:07:16.858Z,26.07
2018-01-06T14:12:18.389Z,27.03
2018-01-06T14:17:19.858Z,29.17
2018-01-06T14:22:21.416Z,31.80
2018-01-06T14:27:22.978Z,33.33
2018-01-06T14:32:24.471Z,33.70
2018-01-06T14:37:29.821Z,33.77
2018-01-06T14:42:27.550Z,33.47
2018-01-06T14:47:29.143Z,33.00
2018-01-06T14:52:31.382Z,31.43
2018-01-06T14:57:32.953Z,33.33
2018-01-06T15:02:34.460Z,30.30
2018-01-06T15:07:36.760Z,33.73
2018-01-06T15:12:38.345Z,31.10
2018-01-06T15:17:39.892Z,33.93
2018-01-06T15:22:41.489Z,32.90
2018-01-06T15:27:43.152Z,31.43
2018-01-06T15:32:44.715Z,30.70
2018-01-06T15:37:46.362Z,29.83
2018-01-06T15:42:47.972Z,27.37
2018-01-06T15:47:49.514Z,29.20
2018-01-06T15:52:51.064Z,27.50
2018-01-06T15:57:53.337Z,27.93
2018-01-06T16:02:55.622Z,28.40
2018-01-06T16:07:57.898Z,27.00
2018-01-06T16:12:59.579Z,26.87
2018-01-06T16:18:01.950Z,26.60
2018-01-06T16:23:04.341Z,28.53
2018-01-06T16:28:06.588Z,25.80
2018-01-06T16:33:08.111Z,25.70
2018-01-06T16:38:10.461Z,23.23
2018-01-06T16:43:11.977Z,22.90
2018-01-06T16:48:13.496Z,24.07
2018-01-06T16:53:15.072Z,22.67
2018-01-06T16:58:16.607Z,23.00
2018-01-06T17:03:18.129Z,20.10
2018-01-06T17:08:20.421Z,6.87
2018-01-06T17:13:22.750Z,5.47
2018-01-06T17:18:24.301Z,6.17
2018-01-06T17:23:25.847Z,4.40
2018-01-06T17:28:28.198Z,4.43
2018-01-06T17:33:29.814Z,3.30
2018-01-06T17:38:31.377Z,4.30
2018-01-06T17:43:32.909Z,3.27
2018-01-06T17:48:34.492Z,3.57
2018-01-06T17:53:37.061Z,4.90
2018-01-06T17:58:38.675Z,5.20
2018-01-06T18:03:41.003Z,5.17
2018-01-06T18:08:42.550Z,4.30
2018-01-06T18:13:44.629Z,4.00
2018-01-06T18:18:46.140Z,4.20
2018-01-06T18:23:47.689Z,3.70
2018-01-06T19:14:50.613Z,3.57
2018-01-06T19:19:52.264Z,5.13
2018-01-06T19:24:54.621Z,4.13
2018-01-06T19:29:56.484Z,5.30
2018-01-06T19:34:58.132Z,5.17
2018-01-06T19:39:59.734Z,5.10
2018-01-06T19:45:01.284Z,5.20
2018-01-06T19:50:02.860Z,4.97
2018-01-06T19:55:04.533Z,4.97
2018-01-06T20:00:06.169Z,5.43
2018-01-06T20:05:08.538Z,5.60
2018-01-06T20:10:10.077Z,5.40
2018-01-06T20:15:11.623Z,5.40
2018-01-06T20:20:13.215Z,5.00
2018-01-06T20:25:14.751Z,4.90
2018-01-06T20:30:16.291Z,4.90
2018-01-06T20:35:18.646Z,5.00
2018-01-06T20:40:20.195Z,4.00
2018-01-06T20:45:22.497Z,3.90
2018-01-06T20:50:24.130Z,5.00
2018-01-06T20:55:25.948Z,4.03
2018-01-06T21:00:28.326Z,4.20
2018-01-06T21:05:30.752Z,3.10
2018-01-06T21:10:33.097Z,4.17
2018-01-06T21:15:34.722Z,3.20
2018-01-06T21:20:36.324Z,3.00
2018-01-06T21:30:46.055Z,3.03
2018-01-06T21:35:47.603Z,3.67
2018-01-06T21:40:49.508Z,4.80
2018-01-06T21:45:51.824Z,3.80
2018-01-06T21:50:53.394Z,3.00
2018-01-06T21:55:54.981Z,3.63
2018-01-06T22:00:57.267Z,3.70
2018-01-06T22:05:59.152Z,3.53
2018-01-06T22:11:00.733Z,4.30
2018-01-06T22:16:02.533Z,4.50
2018-01-06T22:21:04.262Z,3.53
2018-01-06T22:26:05.906Z,3.30
2018-01-06T22:31:07.432Z,3.13
2018-01-06T22:36:08.905Z,2.73
2018-01-06T22:41:11.213Z,3.70
2018-01-06T22:46:13.570Z,3.50
2018-01-06T22:51:15.076Z,2.77
2018-01-06T22:56:16.605Z,2.93
2018-01-06T23:01:20.128Z,3.03
2018-01-06T23:06:21.716Z,2.60
2018-01-06T23:11:24.078Z,3.60
2018-01-06T23:16:25.649Z,2.60
2018-01-06T23:21:27.153Z,2.87
2018-01-06T23:26:28.649Z,2.30
2018-01-06T23:31:30.152Z,2.40
2018-01-06T23:36:31.694Z,2.67
2018-01-06T23:41:33.285Z,2.50
2018-01-06T23:46:34.771Z,2.10
2018-01-06T23:51:37.060Z,1.80
2018-01-06T23:56:39.318Z,1.90
